Time;durP1;ratioP1;P1;durP2;ratioP2;P2;SDS_P1;SDS_P2;PMS_P1;PMS_P2;Temp;Humidity;BMP_temperature;BMP_pressure;BME280_temperature;BME280_humidity;BME280_pressure;Samples;Min_cycle;Max_cycle;Signal;HPM_P1;HPM_P2
2022/01/17 00:01:13;;;;;;;57.15;29.17;;;;;;;7.32;72.59;103049.97;5102498;28;20051;-62
2022/01/17 00:03:42;;;;;;;53.97;30.35;;;;;;;7.31;72.22;103062.50;5103291;28;20056;-62
2022/01/17 00:06:10;;;;;;;51.47;30.02;;;;;;;7.32;72.81;103066.88;5102425;28;20044;-62
2022/01/17 00:08:42;;;;;;;55.13;28.85;;;;;;;7.31;72.79;103075.03;5103294;28;20040;-62
2022/01/17 00:11:11;;;;;;;50.20;28.23;;;;;;;7.31;72.62;103070.53;5102317;28;20051;-63
2022/01/17 00:13:40;;;;;;;56.05;29.05;;;;;;;7.31;72.69;103070.53;5101894;28;20050;-62
2022/01/17 00:16:11;;;;;;;62.38;31.10;;;;;;;7.31;73.13;103094.59;5102331;28;20562;-62
2022/01/17 00:21:41;;;;;;;56.17;31.43;;;;;;;7.29;73.03;103095.72;5038884;28;20072;-63
2022/01/17 00:24:10;;;;;;;57.20;29.08;;;;;;;7.29;72.37;103093.91;5039758;28;20052;-62
2022/01/17 00:26:37;;;;;;;47.92;28.70;;;;;;;7.31;72.50;103091.06;5039457;28;20081;-62
2022/01/17 00:29:05;;;;;;;48.67;27.92;;;;;;;7.30;72.87;103095.59;5038953;28;20050;-62
2022/01/17 00:31:33;;;;;;;55.80;30.17;;;;;;;7.30;73.05;103100.94;5038685;28;20077;-62
2022/01/17 00:34:01;;;;;;;52.40;29.60;;;;;;;7.29;72.30;103103.75;5038414;28;20056;-62
2022/01/17 00:36:28;;;;;;;53.55;30.35;;;;;;;7.28;73.01;103097.56;5039433;28;20080;-63
2022/01/17 00:38:56;;;;;;;54.13;28.60;;;;;;;7.28;73.46;103091.38;5039292;28;20044;-62
2022/01/17 00:41:26;;;;;;;58.97;29.35;;;;;;;7.28;72.48;103088.69;5038712;28;20049;-62
2022/01/17 00:43:55;;;;;;;52.88;28.65;;;;;;;7.28;73.31;103086.03;5038343;28;20053;-62
2022/01/17 00:46:22;;;;;;;53.95;28.65;;;;;;;7.27;73.14;103074.47;5036611;28;20053;-62
2022/01/17 00:48:51;;;;;;;50.47;29.17;;;;;;;7.25;73.27;103071.09;5039081;28;20071;-62
2022/01/17 00:51:19;;;;;;;47.85;27.55;;;;;;;7.27;72.72;103090.53;5037675;28;20045;-62
2022/01/17 00:53:47;;;;;;;48.28;27.98;;;;;;;7.27;72.70;103090.53;5039464;28;20119;-62
2022/01/17 00:56:15;;;;;;;49.33;28.42;;;;;;;7.27;72.93;103095.03;5080595;28;20066;-62
2022/01/17 00:58:44;;;;;;;52.83;28.75;;;;;;;7.27;72.69;103095.88;5098548;28;20055;-62
2022/01/17 01:01:12;;;;;;;52.13;28.15;;;;;;;7.29;72.85;103087.72;5095755;28;20048;-63
2022/01/17 01:03:41;;;;;;;49.85;27.90;;;;;;;7.28;72.79;103086.88;5100057;28;20062;-62
2022/01/17 01:06:09;;;;;;;50.63;27.85;;;;;;;7.28;73.14;103092.22;5101167;28;20119;-62
2022/01/17 01:08:36;;;;;;;51.75;28.55;;;;;;;7.28;73.29;103100.25;5101528;28;20067;-62
2022/01/17 01:11:04;;;;;;;48.78;27.70;;;;;;;7.28;73.56;103096.72;5101652;28;20052;-62
2022/01/17 01:13:32;;;;;;;53.08;28.42;;;;;;;7.28;73.11;103100.25;5101405;28;20052;-63
2022/01/17 01:16:23;;;;;;;55.33;29.52;;;;;;;7.27;72.68;103111.94;5101286;28;20044;-63
2022/01/17 01:30:28;;;;;;;48.05;26.52;;;;;;;7.28;73.24;103113.59;4999224;28;20115;-63
2022/01/17 01:32:59;;;;;;;51.17;27.17;;;;;;;7.29;73.39;103109.09;4999072;28;20042;-63
2022/01/17 01:35:30;;;;;;;47.55;25.98;;;;;;;7.29;73.11;103111.78;4998824;28;20070;-62
2022/01/17 01:38:00;;;;;;;60.85;27.05;;;;;;;7.29;72.70;103087.72;4998436;28;20070;-62
2022/01/17 01:40:28;;;;;;;46.90;27.60;;;;;;;7.27;73.30;103095.03;4997594;28;20046;-62
2022/01/17 01:42:57;;;;;;;55.83;29.02;;;;;;;7.27;73.79;103098.56;4997702;28;20074;-62
2022/01/17 01:45:27;;;;;;;53.47;27.30;;;;;;;7.29;73.32;103091.22;4997370;28;20050;-63
2022/01/17 01:47:55;;;;;;;46.05;26.65;;;;;;;7.30;73.26;103100.09;4998185;28;20046;-63
2022/01/17 01:50:24;;;;;;;42.78;26.70;;;;;;;7.30;73.09;103102.75;4998646;28;20097;-63
2022/01/17 01:52:52;;;;;;;45.45;26.35;;;;;;;7.28;73.62;103113.59;5018793;28;20119;-62
2022/01/17 01:55:21;;;;;;;47.30;25.98;;;;;;;7.28;73.12;103118.97;5038437;28;20390;-62
2022/01/17 01:57:49;;;;;;;49.88;25.63;;;;;;;7.27;72.68;103130.66;5038131;28;20042;-63
2022/01/17 02:00:18;;;;;;;49.60;27.75;;;;;;;7.28;73.05;103129.66;5038562;28;20045;-63
2022/01/17 02:02:46;;;;;;;50.70;26.35;;;;;;;7.27;73.13;103135.16;5031841;28;20041;-63
2022/01/17 02:05:14;;;;;;;44.10;25.98;;;;;;;7.27;73.24;103116.44;5083618;28;20056;-62
2022/01/17 02:07:46;;;;;;;46.78;26.05;;;;;;;7.26;72.75;103107.56;5101619;28;20444;-62
2022/01/17 02:10:14;;;;;;;46.10;26.20;;;;;;;7.26;72.77;103104.03;5105214;28;20048;-62
2022/01/17 02:12:42;;;;;;;48.25;25.90;;;;;;;7.24;73.21;103117.56;5104250;28;20070;-63
2022/01/17 02:15:12;;;;;;;46.90;25.88;;;;;;;7.25;73.01;103127.28;5104854;28;20048;-63
2022/01/17 02:17:45;;;;;;;40.33;25.27;;;;;;;7.25;72.48;103121.09;5105220;28;20050;-62
2022/01/17 02:20:21;;;;;;;47.00;24.95;;;;;;;7.25;73.11;103126.44;5104436;28;20090;-63
2022/01/17 02:22:49;;;;;;;43.05;25.45;;;;;;;7.25;72.80;103118.41;5105762;28;20087;-63
2022/01/17 02:25:16;;;;;;;45.95;26.15;;;;;;;7.24;72.36;103122.06;5104989;28;20464;-62
2022/01/17 02:27:46;;;;;;;46.45;26.17;;;;;;;7.21;73.07;103119.69;5093435;28;20035;-63
2022/01/17 02:30:17;;;;;;;44.70;24.60;;;;;;;7.21;73.40;103120.53;5104981;28;20063;-62
2022/01/17 02:32:45;;;;;;;46.63;25.35;;;;;;;7.19;72.97;103115.31;5096917;28;20753;-62
2022/01/17 02:35:15;;;;;;;40.08;23.25;;;;;;;7.21;72.67;103117.00;5103053;28;20055;-62
2022/01/17 02:37:45;;;;;;;45.40;24.20;;;;;;;7.19;72.81;103109.97;5095594;28;20048;-62
2022/01/17 02:40:15;;;;;;;42.58;24.48;;;;;;;7.18;72.72;103110.97;5104941;28;20084;-62
2022/01/17 02:42:45;;;;;;;45.42;24.23;;;;;;;7.19;72.82;103114.47;5103895;28;20076;-63
2022/01/17 02:45:30;;;;;;;44.58;23.48;;;;;;;7.18;72.91;103123.47;5104668;28;20074;-63
2022/01/17 02:47:58;;;;;;;41.60;22.35;;;;;;;7.18;72.41;103118.13;5104096;28;20048;-62
2022/01/17 02:50:26;;;;;;;38.97;20.88;;;;;;;7.18;72.12;103115.47;5098977;28;20075;-63
2022/01/17 02:52:59;;;;;;;38.58;23.20;;;;;;;7.17;72.63;103119.97;5099294;28;20048;-62
2022/01/17 02:55:27;;;;;;;40.72;23.75;;;;;;;7.16;72.72;103117.44;5104649;28;20497;-62
2022/01/17 02:57:55;;;;;;;40.88;22.67;;;;;;;7.15;72.89;103119.25;5104205;28;20090;-63
2022/01/17 03:00:23;;;;;;;42.58;24.52;;;;;;;7.14;72.91;103114.91;5104057;28;20071;-63
2022/01/17 03:02:50;;;;;;;37.75;22.13;;;;;;;7.14;72.85;103117.59;5104292;28;20040;-63
2022/01/17 03:05:20;;;;;;;40.30;24.08;;;;;;;7.09;72.47;103111.81;5096037;28;20054;-63
2022/01/17 03:07:50;;;;;;;40.80;22.30;;;;;;;7.13;72.30;103109.69;5104195;28;20607;-62
2022/01/17 03:10:31;;;;;;;40.97;24.10;;;;;;;7.14;72.22;103112.22;5104067;28;20040;-62
2022/01/17 03:13:02;;;;;;;37.85;22.80;;;;;;;7.16;72.20;103106.75;5103547;28;20067;-62
2022/01/17 03:15:30;;;;;;;39.33;22.02;;;;;;;7.15;72.94;103099.72;5104054;28;20059;-62
2022/01/17 03:17:58;;;;;;;39.53;21.85;;;;;;;7.14;72.15;103106.03;5103850;28;20055;-63
2022/01/17 03:20:25;;;;;;;39.40;22.08;;;;;;;7.15;72.83;103089.00;5102519;28;20079;-62
2022/01/17 03:22:54;;;;;;;40.28;22.80;;;;;;;7.14;72.02;103087.31;5104183;28;20055;-62
2022/01/17 03:25:23;;;;;;;38.08;20.63;;;;;;;7.15;72.68;103099.72;5104228;28;20063;-63
2022/01/17 03:27:51;;;;;;;38.53;21.88;;;;;;;7.14;72.23;103109.56;5102847;28;20158;-62
2022/01/17 03:30:18;;;;;;;39.38;20.75;;;;;;;7.14;72.08;103101.53;5096548;28;20048;-64
2022/01/17 03:32:46;;;;;;;37.90;21.42;;;;;;;7.14;72.20;103095.34;5103758;28;20047;-63
2022/01/17 03:35:15;;;;;;;42.47;22.10;;;;;;;7.12;72.25;103090.13;5102817;28;20091;-62
2022/01/17 03:37:44;;;;;;;36.45;20.77;;;;;;;7.10;72.21;103091.28;5103837;28;20116;-63
2022/01/17 03:40:13;;;;;;;34.35;19.35;;;;;;;7.10;72.41;103094.78;5099898;28;20071;-62
2022/01/17 03:42:42;;;;;;;38.28;20.83;;;;;;;7.07;72.24;103097.75;5099124;28;20412;-63
2022/01/17 03:45:11;;;;;;;37.08;20.35;;;;;;;7.09;72.55;103100.28;5099971;28;20048;-63
2022/01/17 03:47:41;;;;;;;35.63;19.95;;;;;;;7.06;72.79;103105.91;5102899;28;20512;-63
2022/01/17 03:50:13;;;;;;;34.47;19.08;;;;;;;7.06;72.29;103113.94;5102509;28;20039;-62
2022/01/17 03:52:41;;;;;;;31.50;18.73;;;;;;;7.05;72.29;103126.47;5103322;28;20310;-63
2022/01/17 03:55:11;;;;;;;40.13;19.95;;;;;;;7.06;72.27;103114.78;5102700;28;20072;-63
2022/01/17 03:57:42;;;;;;;32.75;18.83;;;;;;;7.06;72.26;103119.28;5102522;28;20048;-63
2022/01/17 04:00:18;;;;;;;30.27;18.20;;;;;;;7.05;72.33;103114.91;5098735;28;20189;-63
2022/01/17 04:02:45;;;;;;;31.90;18.00;;;;;;;7.04;71.87;103113.22;5100568;28;20052;-63
2022/01/17 04:05:14;;;;;;;33.92;18.65;;;;;;;7.04;72.01;103107.88;5102287;28;20062;-63
2022/01/17 04:07:42;;;;;;;27.15;17.17;;;;;;;7.04;71.77;103105.22;5102356;28;20107;-63
2022/01/17 04:10:10;;;;;;;31.85;16.55;;;;;;;7.03;71.73;103107.03;5100912;28;20040;-63
2022/01/17 04:12:38;;;;;;;33.38;17.83;;;;;;;6.98;72.04;103109.31;5101915;28;20060;-63
2022/01/17 04:15:07;;;;;;;34.35;16.48;;;;;;;7.00;71.75;103107.31;5102124;28;20040;-63
2022/01/17 04:17:39;;;;;;;32.83;16.17;;;;;;;7.01;71.85;103116.19;5102200;28;20055;-63
2022/01/17 04:20:12;;;;;;;28.15;17.27;;;;;;;6.99;72.04;103124.34;5102044;28;20044;-62
2022/01/17 04:22:44;;;;;;;29.20;16.30;;;;;;;6.98;71.81;103124.50;5102588;28;20052;-62
2022/01/17 04:25:12;;;;;;;26.98;15.48;;;;;;;6.96;72.14;103129.97;5102769;28;20052;-62
2022/01/17 04:27:40;;;;;;;28.20;16.20;;;;;;;6.97;71.72;103134.34;5102290;28;20048;-62
2022/01/17 04:30:09;;;;;;;29.10;16.23;;;;;;;6.97;72.15;103131.69;5101968;28;20074;-62
2022/01/17 04:32:38;;;;;;;29.25;15.88;;;;;;;6.97;72.26;103137.03;5099633;28;20177;-63
2022/01/17 04:35:06;;;;;;;26.33;15.30;;;;;;;6.98;71.89;103136.03;5101949;28;20188;-63
2022/01/17 04:37:33;;;;;;;30.08;15.85;;;;;;;6.97;71.78;103144.19;5102258;28;20056;-62
2022/01/17 04:40:01;;;;;;;28.58;16.20;;;;;;;6.98;71.71;103153.91;5102221;28;20051;-62
2022/01/17 04:42:29;;;;;;;33.67;16.40;;;;;;;6.98;72.05;103143.22;5102244;28;20082;-62
2022/01/17 04:45:10;;;;;;;24.13;13.73;;;;;;;6.95;72.14;103136.31;5102262;28;20047;-63
2022/01/17 04:47:42;;;;;;;30.05;15.07;;;;;;;6.94;71.87;103134.63;5102184;28;20052;-62
2022/01/17 04:50:13;;;;;;;28.02;15.30;;;;;;;6.96;72.05;103134.50;5101525;28;20044;-63
2022/01/17 04:52:42;;;;;;;28.52;15.13;;;;;;;6.97;71.54;103133.50;5102299;28;20151;-63
2022/01/17 04:55:12;;;;;;;23.90;15.27;;;;;;;6.96;71.86;103132.66;5102435;28;20092;-63
2022/01/17 04:57:40;;;;;;;28.88;15.85;;;;;;;6.94;71.90;103131.97;5101848;28;20059;-63
2022/01/17 05:00:11;;;;;;;26.27;15.00;;;;;;;6.94;71.82;103134.63;5101806;28;20072;-62
2022/01/17 05:02:42;;;;;;;30.70;15.50;;;;;;;6.93;71.44;103122.28;5101723;28;20039;-63
2022/01/17 05:05:10;;;;;;;28.48;15.43;;;;;;;6.95;71.84;103128.31;5101445;28;20044;-63
2022/01/17 05:07:38;;;;;;;26.13;16.42;;;;;;;6.94;71.74;103131.97;5102085;28;20047;-63
2022/01/17 05:10:09;;;;;;;32.10;17.08;;;;;;;6.93;72.30;103143.66;5102079;28;20048;-63
2022/01/17 05:12:37;;;;;;;26.02;14.68;;;;;;;6.94;71.88;103144.47;5101692;28;20056;-62
2022/01/17 05:15:10;;;;;;;29.27;15.63;;;;;;;6.92;72.09;103149.16;5103582;28;20051;-63
2022/01/17 05:17:55;;;;;;;27.55;15.65;;;;;;;6.92;71.83;103151.81;5100701;28;20052;-63
2022/01/17 05:20:25;;;;;;;28.17;14.75;;;;;;;6.91;71.95;103155.50;5096049;28;20051;-62
2022/01/17 05:22:53;;;;;;;23.88;15.35;;;;;;;6.90;72.35;103164.50;5101376;28;20054;-63
2022/01/17 05:25:21;;;;;;;24.52;14.73;;;;;;;6.84;72.29;103165.91;5101718;28;20060;-62
2022/01/17 05:27:49;;;;;;;29.60;14.77;;;;;;;6.84;72.11;103174.75;5101547;28;20055;-62
2022/01/17 05:30:19;;;;;;;25.13;14.77;;;;;;;6.91;71.66;103177.72;5101852;28;20055;-63
2022/01/17 05:32:47;;;;;;;24.50;14.13;;;;;;;6.87;72.26;103176.31;5101801;28;20048;-62
2022/01/17 05:35:15;;;;;;;27.38;14.80;;;;;;;6.85;71.91;103173.78;5101413;28;20047;-63
2022/01/17 05:37:45;;;;;;;23.58;14.00;;;;;;;6.85;72.17;103176.44;5101699;28;20067;-63
2022/01/17 05:40:16;;;;;;;25.98;14.43;;;;;;;6.87;71.94;103178.13;5101868;28;20055;-62
2022/01/17 05:42:44;;;;;;;25.02;15.35;;;;;;;6.87;71.65;103178.97;5102798;28;20052;-62
2022/01/17 05:45:14;;;;;;;28.13;14.55;;;;;;;6.87;72.02;103181.66;5105876;28;20075;-63
2022/01/17 05:47:42;;;;;;;23.42;14.00;;;;;;;6.85;71.89;103168.44;5105615;28;20117;-62
2022/01/17 05:50:10;;;;;;;24.20;13.48;;;;;;;6.83;71.82;103169.56;5105277;28;20047;-63
2022/01/17 05:52:38;;;;;;;26.40;15.18;;;;;;;6.82;71.72;103176.72;5105504;28;20055;-63
2022/01/17 05:55:10;;;;;;;28.40;15.18;;;;;;;6.83;71.82;103177.56;5106036;28;20067;-63
2022/01/17 05:57:38;;;;;;;25.50;14.13;;;;;;;6.83;71.70;103177.56;5104434;28;20051;-63
2022/01/17 06:00:08;;;;;;;23.17;14.45;;;;;;;6.80;72.23;103175.19;5105331;28;20161;-63
2022/01/17 06:02:36;;;;;;;23.55;13.93;;;;;;;6.82;71.95;103182.06;5101831;28;20052;-63
2022/01/17 06:05:04;;;;;;;30.35;15.32;;;;;;;6.83;71.52;103185.59;5104819;28;20051;-63
2022/01/17 06:07:32;;;;;;;26.77;15.10;;;;;;;6.81;71.62;103191.06;5105036;28;20048;-63
2022/01/17 06:10:00;;;;;;;25.50;14.82;;;;;;;6.82;71.73;103187.41;5104981;28;20055;-63
2022/01/17 06:12:29;;;;;;;26.40;15.70;;;;;;;6.79;71.73;103185.03;5104488;28;20060;-63
2022/01/17 06:14:57;;;;;;;31.02;14.52;;;;;;;6.78;71.84;103195.84;5104956;28;20398;-63
2022/01/17 06:17:25;;;;;;;23.05;14.13;;;;;;;6.80;71.74;103204.56;5101130;28;20083;-64
2022/01/17 06:19:53;;;;;;;25.83;14.45;;;;;;;6.79;71.53;103197.53;5104420;28;20048;-63
2022/01/17 06:22:21;;;;;;;30.33;14.57;;;;;;;6.78;72.02;103194.03;5105423;28;20075;-63
2022/01/17 06:24:50;;;;;;;24.08;15.32;;;;;;;6.77;72.04;103197.69;5102974;28;20056;-62
2022/01/17 06:27:18;;;;;;;26.92;14.27;;;;;;;6.79;71.83;103205.56;5102342;28;20075;-62
2022/01/17 06:29:47;;;;;;;28.40;14.98;;;;;;;6.80;71.46;103202.75;5100997;28;20082;-63
2022/01/17 06:32:15;;;;;;;23.77;13.90;;;;;;;6.79;71.95;103206.41;5102922;28;20036;-64
2022/01/17 06:35:03;;;;;;;24.05;14.60;;;;;;;6.79;71.75;103202.88;5104565;28;20113;-62
2022/01/17 06:37:31;;;;;;;25.02;14.07;;;;;;;6.78;71.52;103191.34;5104046;28;20105;-63
2022/01/17 06:39:59;;;;;;;29.48;15.77;;;;;;;6.78;71.61;103185.16;5103508;28;20355;-61
2022/01/17 06:42:27;;;;;;;24.45;14.45;;;;;;;6.79;71.63;103190.38;5103227;28;20067;-61
2022/01/17 06:44:56;;;;;;;26.50;15.20;;;;;;;6.80;71.30;103200.06;5102972;28;20051;-61
2022/01/17 06:47:23;;;;;;;27.30;17.70;;;;;;;6.82;71.25;103200.78;5103955;28;20123;-62
2022/01/17 06:49:51;;;;;;;28.08;15.90;;;;;;;6.81;71.66;103199.09;5103874;28;20082;-61
2022/01/17 06:52:19;;;;;;;25.83;16.80;;;;;;;6.80;71.78;103204.56;5104425;28;20080;-60
2022/01/17 06:54:47;;;;;;;28.90;16.67;;;;;;;6.78;71.47;103214.56;5103057;28;20044;-62
2022/01/17 06:57:15;;;;;;;29.10;16.85;;;;;;;6.76;71.55;103224.53;5104058;28;20059;-62
2022/01/17 06:59:43;;;;;;;27.95;15.85;;;;;;;6.77;71.97;103237.78;5103587;28;20056;-68
2022/01/17 07:02:12;;;;;;;31.33;16.67;;;;;;;6.77;71.53;103251.13;5103779;28;20093;-62
2022/01/17 07:04:40;;;;;;;29.45;17.48;;;;;;;6.76;71.65;103254.78;4393995;28;10000798;-62
2022/01/17 07:07:08;;;;;;;29.88;17.58;;;;;;;6.77;71.92;103259.16;5097678;28;20040;-61
2022/01/17 07:09:36;;;;;;;31.38;17.52;;;;;;;6.77;72.12;103291.22;5099884;28;20048;-61
2022/01/17 07:12:05;;;;;;;33.58;16.73;;;;;;;6.76;72.26;103297.56;5099941;28;20116;-63
2022/01/17 07:14:33;;;;;;;31.63;17.38;;;;;;;6.76;71.64;103284.19;5099381;28;20205;-64
2022/01/17 07:17:01;;;;;;;35.08;18.02;;;;;;;6.75;71.91;103265.63;5100118;28;20525;-62
2022/01/17 07:19:30;;;;;;;27.27;15.57;;;;;;;6.73;71.95;103252.41;5097446;28;20075;-62
2022/01/17 07:21:57;;;;;;;29.88;16.05;;;;;;;6.75;71.62;103246.91;5100346;28;20051;-64
2022/01/17 07:24:39;;;;;;;26.58;15.40;;;;;;;6.73;72.00;103220.31;5100497;28;20051;-63
2022/01/17 07:27:07;;;;;;;28.45;16.45;;;;;;;6.74;72.01;103207.81;5100400;28;20595;-64
2022/01/17 07:29:35;;;;;;;31.52;16.90;;;;;;;6.74;71.62;103207.81;5098232;28;20504;-63
2022/01/17 07:32:03;;;;;;;27.25;16.40;;;;;;;6.74;71.87;103205.13;5098554;28;20044;-62
2022/01/17 07:34:32;;;;;;;24.55;16.13;;;;;;;6.76;71.82;103214.69;5098493;28;20052;-62
2022/01/17 07:37:00;;;;;;;30.13;17.38;;;;;;;6.75;71.94;103207.66;5100154;28;20132;-61
2022/01/17 07:39:28;;;;;;;31.55;16.35;;;;;;;6.75;71.92;103234.38;5099962;28;20080;-63
2022/01/17 07:41:56;;;;;;;25.30;16.27;;;;;;;6.77;71.78;103239.59;5099642;28;20101;-62
2022/01/17 07:44:25;;;;;;;25.20;15.65;;;;;;;6.75;72.54;103255.78;5092182;28;20365;-63
2022/01/17 07:46:55;;;;;;;30.60;16.77;;;;;;;6.76;71.91;103248.59;5091152;28;20048;-63
2022/01/17 07:49:24;;;;;;;31.58;17.55;;;;;;;6.74;72.48;103229.19;5097494;28;20086;-62
2022/01/17 07:51:58;;;;;;;27.75;16.75;;;;;;;6.75;72.27;103236.22;5096210;28;20036;-62
2022/01/17 07:54:28;;;;;;;26.77;17.35;;;;;;;6.74;72.67;103242.53;5098746;28;20594;-60
2022/01/17 07:56:56;;;;;;;34.30;18.80;;;;;;;6.76;72.30;103253.94;5098915;28;20047;-60
2022/01/17 07:59:24;;;;;;;28.65;17.70;;;;;;;6.76;72.75;103259.28;5097385;28;20052;-59
2022/01/17 08:01:52;;;;;;;34.25;19.83;;;;;;;6.75;72.41;103261.13;5097442;28;20040;-60
2022/01/17 08:04:20;;;;;;;32.15;17.33;;;;;;;6.74;72.38;103264.78;5099523;28;20044;-60
2022/01/17 08:06:49;;;;;;;28.13;18.70;;;;;;;6.74;72.73;103277.28;5099786;28;20063;-59
2022/01/17 08:09:20;;;;;;;32.90;18.52;;;;;;;6.74;72.24;103285.31;5101691;28;20374;-60
2022/01/17 08:12:04;;;;;;;30.60;17.33;;;;;;;6.75;72.41;103284.31;5101757;28;20059;-64
2022/01/17 08:14:31;;;;;;;32.30;18.55;;;;;;;6.75;72.42;103278.97;5099342;28;20081;-61
2022/01/17 08:16:59;;;;;;;29.73;18.33;;;;;;;6.76;72.34;103278.84;5101438;28;20047;-61
2022/01/17 08:19:27;;;;;;;27.67;16.50;;;;;;;6.78;72.79;103286.72;5099856;28;20132;-61
2022/01/17 08:21:59;;;;;;;27.40;17.35;;;;;;;6.78;72.26;103294.75;5101813;28;20468;-61
2022/01/17 08:24:28;;;;;;;30.23;18.30;;;;;;;6.77;72.92;103301.91;5101515;28;20050;-61
2022/01/17 08:26:57;;;;;;;28.67;17.10;;;;;;;6.78;72.64;103297.41;5102004;28;20048;-61
2022/01/17 08:29:27;;;;;;;30.38;17.17;;;;;;;6.70;72.19;103283.88;5100658;28;20432;-61
2022/01/17 08:31:56;;;;;;;28.42;18.23;;;;;;;6.76;72.93;103289.53;5101153;28;20105;-61
2022/01/17 08:34:25;;;;;;;26.70;16.70;;;;;;;6.78;72.94;103287.56;5101375;28;20531;-61
2022/01/17 08:36:54;;;;;;;29.75;17.52;;;;;;;6.77;73.07;103293.91;5101696;28;20067;-61
2022/01/17 08:39:24;;;;;;;25.42;16.08;;;;;;;6.78;72.90;103292.06;5095101;28;20196;-61
2022/01/17 08:41:54;;;;;;;33.13;17.05;;;;;;;6.78;72.65;103287.56;5101509;28;20419;-61
2022/01/17 08:44:23;;;;;;;30.80;16.50;;;;;;;6.80;72.41;103284.75;5100740;28;20071;-62
2022/01/17 08:46:51;;;;;;;24.17;15.82;;;;;;;6.80;73.30;103271.41;5100174;28;20381;-62
2022/01/17 08:49:19;;;;;;;25.60;15.57;;;;;;;6.87;72.96;103264.50;5101443;28;20103;-61
2022/01/17 08:51:48;;;;;;;24.98;15.38;;;;;;;7.01;72.26;103271.25;5098100;28;20154;-62
2022/01/17 08:54:16;;;;;;;25.88;14.15;;;;;;;7.15;71.88;103273.53;5101665;28;20060;-62
2022/01/17 08:56:43;;;;;;;25.17;14.07;;;;;;;7.29;71.09;103274.94;5100551;28;20047;-62
2022/01/17 08:59:12;;;;;;;25.55;13.80;;;;;;;7.42;71.10;103280.84;5100783;28;20044;-61
2022/01/17 09:01:40;;;;;;;25.13;14.63;;;;;;;7.57;70.87;103278.59;5100266;28;20044;-61
2022/01/17 09:04:08;;;;;;;20.52;12.63;;;;;;;7.69;70.29;103272.94;5100093;28;20425;-61
2022/01/17 09:06:37;;;;;;;26.13;14.43;;;;;;;7.78;69.90;103289.97;5099328;28;20067;-61
2022/01/17 09:09:05;;;;;;;24.33;14.93;;;;;;;7.90;69.68;103285.28;5100419;28;20059;-61
2022/01/17 09:11:33;;;;;;;25.15;14.40;;;;;;;8.03;69.08;103293.84;5100542;28;20052;-61
2022/01/17 09:14:00;;;;;;;20.55;13.52;;;;;;;8.19;68.28;103304.81;5100125;28;20442;-61
2022/01/17 09:16:30;;;;;;;20.95;13.55;;;;;;;8.30;68.43;103301.09;5100460;28;20512;-62
2022/01/17 09:19:00;;;;;;;21.13;13.00;;;;;;;8.31;67.93;103319.72;5094523;28;20111;-62
2022/01/17 09:21:28;;;;;;;20.08;12.32;;;;;;;8.37;67.79;103312.97;5100233;28;20079;-61
2022/01/17 09:23:57;;;;;;;18.98;12.32;;;;;;;8.39;67.95;103327.06;5101061;28;20056;-61
2022/01/17 09:26:25;;;;;;;24.52;11.93;;;;;;;8.42;68.00;103322.25;5100486;28;20070;-61
2022/01/17 09:28:53;;;;;;;24.48;12.52;;;;;;;8.44;67.38;103322.94;5099478;28;20052;-61
2022/01/17 09:31:21;;;;;;;23.35;12.73;;;;;;;8.47;67.83;103308.41;5099989;28;20052;-63
2022/01/17 09:33:51;;;;;;;24.67;11.77;;;;;;;8.47;66.90;103328.00;5098914;28;20107;-62
2022/01/17 09:36:21;;;;;;;25.35;12.70;;;;;;;8.47;68.16;103341.41;5099679;28;20052;-62
2022/01/17 09:38:49;;;;;;;21.98;12.68;;;;;;;8.58;68.03;103337.69;5099289;28;20126;-62
2022/01/17 09:41:17;;;;;;;23.15;13.82;;;;;;;8.61;67.61;103339.25;5100601;28;20105;-62
2022/01/17 09:43:49;;;;;;;22.88;12.85;;;;;;;8.62;66.98;103335.56;5099525;28;20048;-62
2022/01/17 09:46:19;;;;;;;22.92;12.80;;;;;;;8.67;67.23;103347.50;5100310;28;20113;-62
2022/01/17 09:48:49;;;;;;;24.17;12.95;;;;;;;8.59;68.12;103344.75;5100302;28;20132;-62
2022/01/17 09:51:37;;;;;;;19.25;12.80;;;;;;;8.46;67.46;103360.31;5100092;28;20461;-62
2022/01/17 09:54:07;;;;;;;27.58;13.85;;;;;;;8.31;68.81;103364.41;5097059;28;20044;-62
2022/01/17 09:56:38;;;;;;;21.17;11.95;;;;;;;8.15;68.90;103370.38;5097863;28;20051;-62
2022/01/17 09:59:05;;;;;;;24.90;12.60;;;;;;;8.05;69.82;103367.72;5100038;28;20070;-62
2022/01/17 10:01:33;;;;;;;28.92;13.90;;;;;;;7.97;69.98;103380.97;5100479;28;20048;-62
2022/01/17 10:04:06;;;;;;;21.33;11.80;;;;;;;7.88;70.70;103375.63;5100137;28;20040;-61
2022/01/17 10:06:36;;;;;;;20.77;11.18;;;;;;;7.82;70.66;103352.94;5099520;28;20109;-62
2022/01/17 10:09:12;;;;;;;26.35;11.25;;;;;;;7.72;71.05;103366.34;5100939;28;20044;-62
2022/01/17 10:11:59;;;;;;;20.55;10.25;;;;;;;7.70;70.75;103365.63;5100273;28;20051;-62
2022/01/17 10:14:29;;;;;;;24.90;11.10;;;;;;;7.63;71.29;103360.97;5099634;28;20044;-62
2022/01/17 10:16:56;;;;;;;23.90;10.15;;;;;;;7.53;71.76;103374.34;5096864;28;20068;-62
2022/01/17 10:19:26;;;;;;;29.58;11.23;;;;;;;7.67;71.74;103370.41;5097606;28;20040;-62
2022/01/17 10:21:59;;;;;;;17.38;10.10;;;;;;;7.85;70.55;103366.03;5097291;28;20055;-62
2022/01/17 10:24:35;;;;;;;21.02;9.25;;;;;;;7.99;70.22;103368.28;5097130;28;20056;-62
2022/01/17 10:27:20;;;;;;;18.33;7.90;;;;;;;8.10;70.17;103399.41;5099041;28;20048;-64
2022/01/17 10:35:22;;;;;;;16.25;7.85;;;;;;;8.57;68.39;103375.38;5098333;28;20052;-62
2022/01/17 10:38:00;;;;;;;21.23;8.75;;;;;;;8.63;67.66;103389.03;5101619;28;20070;-62
2022/01/17 10:40:29;;;;;;;20.05;8.05;;;;;;;8.56;68.59;103379.03;5099714;28;20059;-62
2022/01/17 10:42:59;;;;;;;23.35;8.95;;;;;;;8.47;68.47;103386.97;5100219;28;20245;-61
2022/01/17 10:45:33;;;;;;;22.02;7.40;;;;;;;8.36;69.15;103387.13;5101579;28;20088;-62
2022/01/17 10:48:02;;;;;;;18.60;7.30;;;;;;;8.20;69.42;103386.88;5100415;28;20108;-61
2022/01/17 10:50:34;;;;;;;17.80;7.10;;;;;;;8.08;70.61;103378.13;5101892;28;20260;-62
2022/01/17 10:53:05;;;;;;;20.42;7.38;;;;;;;7.98;70.14;103377.31;5100708;28;20066;-62
2022/01/17 10:55:35;;;;;;;23.75;7.05;;;;;;;7.94;70.75;103394.66;5101467;28;20078;-62
2022/01/17 10:58:08;;;;;;;29.98;8.15;;;;;;;7.86;70.83;103391.84;5101723;28;20055;-62
2022/01/17 11:00:38;;;;;;;17.35;6.32;;;;;;;7.82;71.82;103417.19;5101571;28;20081;-62
2022/01/17 11:03:09;;;;;;;21.92;6.63;;;;;;;7.75;71.38;103419.59;5099540;28;20092;-62
2022/01/17 11:05:38;;;;;;;21.45;7.07;;;;;;;7.66;71.47;103417.75;5101293;28;20044;-62
2022/01/17 11:08:14;;;;;;;24.98;5.78;;;;;;;7.67;71.85;103416.75;5101254;28;20067;-62
2022/01/17 11:10:44;;;;;;;17.73;7.13;;;;;;;7.61;72.20;103413.81;5101078;28;20476;-62
2022/01/17 11:13:14;;;;;;;16.30;6.28;;;;;;;7.60;71.93;103418.31;5099885;28;20567;-61
2022/01/17 11:15:45;;;;;;;21.98;7.43;;;;;;;7.60;71.99;103423.66;5101367;28;20040;-62
2022/01/17 11:18:20;;;;;;;20.17;7.68;;;;;;;7.59;71.90;103421.97;5102321;28;20123;-62
2022/01/17 11:20:49;;;;;;;24.27;7.35;;;;;;;7.59;72.25;103439.84;5101437;28;20048;-62
2022/01/17 11:23:21;;;;;;;21.38;6.25;;;;;;;7.56;72.59;103421.41;5100935;28;20052;-63
2022/01/17 11:25:54;;;;;;;17.95;6.05;;;;;;;7.54;72.81;103413.50;5101985;28;20181;-62
2022/01/17 11:28:24;;;;;;;14.52;5.93;;;;;;;7.54;72.63;103418.00;5101137;28;20052;-62
2022/01/17 11:30:54;;;;;;;25.23;7.38;;;;;;;7.51;73.11;103408.44;5100387;28;20075;-62
2022/01/17 11:33:23;;;;;;;23.02;5.50;;;;;;;7.53;73.31;103405.63;5095946;28;20143;-62
2022/01/17 11:35:52;;;;;;;21.30;5.53;;;;;;;7.53;73.15;103394.91;5100397;28;20059;-62
2022/01/17 11:38:26;;;;;;;19.90;6.45;;;;;;;7.54;72.60;103391.25;5097946;28;20055;-62
2022/01/17 11:40:55;;;;;;;20.50;6.20;;;;;;;7.55;72.84;103398.31;5094593;28;20052;-63
2022/01/17 11:43:32;;;;;;;17.17;5.72;;;;;;;7.54;72.78;103404.63;5100247;28;20112;-63
2022/01/17 11:46:03;;;;;;;23.33;6.47;;;;;;;7.51;73.28;103405.75;5098625;28;20087;-62
2022/01/17 11:48:32;;;;;;;18.33;5.00;;;;;;;7.53;73.00;103409.16;5100707;28;20047;-61